sensor_id;sensor_type;location;lat;lon;timestamp;P1;durP1;ratioP1;P2;durP2;ratioP2
28447;SDS011;15675;52.870;-1.416;2023-03-14T00:00:37;6.57;;;1.63;;
28447;SDS011;15675;52.870;-1.416;2023-03-14T00:03:03;8.50;;;1.77;;
28447;SDS011;15675;52.870;-1.416;2023-03-14T00:05:28;8.38;;;1.50;;
28447;SDS011;15675;52.870;-1.416;2023-03-14T00:07:54;4.20;;;1.73;;
28447;SDS011;15675;52.870;-1.416;2023-03-14T00:10:19;7.32;;;1.60;;
28447;SDS011;15675;52.870;-1.416;2023-03-14T00:12:45;4.53;;;1.30;;
28447;SDS011;15675;52.870;-1.416;2023-03-14T00:15:11;3.53;;;1.60;;
28447;SDS011;15675;52.870;-1.416;2023-03-14T00:17:37;5.72;;;1.35;;
28447;SDS011;15675;52.870;-1.416;2023-03-14T00:20:04;5.57;;;1.65;;
28447;SDS011;15675;52.870;-1.416;2023-03-14T00:22:35;6.15;;;1.77;;
28447;SDS011;15675;52.870;-1.416;2023-03-14T00:25:01;4.63;;;1.85;;
28447;SDS011;15675;52.870;-1.416;2023-03-14T00:27:27;7.72;;;1.75;;
28447;SDS011;15675;52.870;-1.416;2023-03-14T00:29:52;6.40;;;1.73;;
28447;SDS011;15675;52.870;-1.416;2023-03-14T00:32:18;4.15;;;1.73;;
28447;SDS011;15675;52.870;-1.416;2023-03-14T00:34:43;5.82;;;1.67;;
28447;SDS011;15675;52.870;-1.416;2023-03-14T00:37:09;6.15;;;1.77;;
28447;SDS011;15675;52.870;-1.416;2023-03-14T00:39:34;7.25;;;1.60;;
28447;SDS011;15675;52.870;-1.416;2023-03-14T00:42:00;7.65;;;2.08;;
28447;SDS011;15675;52.870;-1.416;2023-03-14T00:44:26;5.57;;;1.55;;
28447;SDS011;15675;52.870;-1.416;2023-03-14T00:46:51;8.63;;;2.13;;
28447;SDS011;15675;52.870;-1.416;2023-03-14T00:49:17;4.80;;;1.73;;
28447;SDS011;15675;52.870;-1.416;2023-03-14T00:51:42;12.70;;;2.35;;
28447;SDS011;15675;52.870;-1.416;2023-03-14T00:54:08;7.10;;;2.00;;
28447;SDS011;15675;52.870;-1.416;2023-03-14T00:56:33;2.47;;;0.70;;
28447;SDS011;15675;52.870;-1.416;2023-03-14T00:58:59;1.98;;;0.60;;
28447;SDS011;15675;52.870;-1.416;2023-03-14T01:01:24;1.02;;;0.50;;
28447;SDS011;15675;52.870;-1.416;2023-03-14T01:03:53;1.50;;;0.60;;
28447;SDS011;15675;52.870;-1.416;2023-03-14T01:06:21;1.05;;;0.80;;
28447;SDS011;15675;52.870;-1.416;2023-03-14T01:08:49;1.23;;;0.40;;
28447;SDS011;15675;52.870;-1.416;2023-03-14T01:11:16;0.50;;;0.40;;
28447;SDS011;15675;52.870;-1.416;2023-03-14T01:14:02;0.60;;;0.50;;
28447;SDS011;15675;52.870;-1.416;2023-03-14T01:16:29;0.73;;;0.50;;
28447;SDS011;15675;52.870;-1.416;2023-03-14T01:18:56;0.57;;;0.43;;
28447;SDS011;15675;52.870;-1.416;2023-03-14T01:21:23;0.98;;;0.60;;
28447;SDS011;15675;52.870;-1.416;2023-03-14T01:23:50;1.17;;;0.60;;
28447;SDS011;15675;52.870;-1.416;2023-03-14T01:26:17;0.63;;;0.50;;
28447;SDS011;15675;52.870;-1.416;2023-03-14T01:28:45;0.63;;;0.55;;
28447;SDS011;15675;52.870;-1.416;2023-03-14T01:31:11;1.00;;;0.50;;
28447;SDS011;15675;52.870;-1.416;2023-03-14T01:33:37;1.38;;;0.60;;
28447;SDS011;15675;52.870;-1.416;2023-03-14T01:36:03;0.98;;;0.68;;
28447;SDS011;15675;52.870;-1.416;2023-03-14T01:38:30;0.70;;;0.50;;
28447;SDS011;15675;52.870;-1.416;2023-03-14T01:40:56;1.13;;;0.68;;
28447;SDS011;15675;52.870;-1.416;2023-03-14T01:43:22;0.95;;;0.70;;
28447;SDS011;15675;52.870;-1.416;2023-03-14T01:48:31;1.98;;;0.82;;
28447;SDS011;15675;52.870;-1.416;2023-03-14T01:51:00;0.88;;;0.57;;
28447;SDS011;15675;52.870;-1.416;2023-03-14T01:53:27;1.50;;;0.60;;
28447;SDS011;15675;52.870;-1.416;2023-03-14T01:55:53;1.20;;;0.80;;
28447;SDS011;15675;52.870;-1.416;2023-03-14T01:58:21;1.73;;;0.70;;
28447;SDS011;15675;52.870;-1.416;2023-03-14T02:00:50;2.38;;;0.70;;
28447;SDS011;15675;52.870;-1.416;2023-03-14T02:03:16;0.77;;;0.60;;
28447;SDS011;15675;52.870;-1.416;2023-03-14T02:05:46;1.33;;;0.60;;
28447;SDS011;15675;52.870;-1.416;2023-03-14T02:08:16;3.67;;;0.63;;
28447;SDS011;15675;52.870;-1.416;2023-03-14T02:10:45;1.10;;;0.60;;
28447;SDS011;15675;52.870;-1.416;2023-03-14T02:13:14;1.30;;;0.70;;
28447;SDS011;15675;52.870;-1.416;2023-03-14T02:15:42;1.13;;;0.63;;
28447;SDS011;15675;52.870;-1.416;2023-03-14T02:18:08;1.63;;;0.80;;
28447;SDS011;15675;52.870;-1.416;2023-03-14T02:23:00;1.65;;;0.73;;
28447;SDS011;15675;52.870;-1.416;2023-03-14T02:27:55;1.85;;;0.90;;
28447;SDS011;15675;52.870;-1.416;2023-03-14T02:30:22;0.60;;;0.50;;
28447;SDS011;15675;52.870;-1.416;2023-03-14T02:32:54;1.50;;;0.70;;
28447;SDS011;15675;52.870;-1.416;2023-03-14T02:35:24;2.90;;;1.15;;
28447;SDS011;15675;52.870;-1.416;2023-03-14T02:40:42;1.55;;;0.90;;
28447;SDS011;15675;52.870;-1.416;2023-03-14T02:43:07;2.22;;;0.90;;
28447;SDS011;15675;52.870;-1.416;2023-03-14T02:45:40;0.98;;;0.77;;
28447;SDS011;15675;52.870;-1.416;2023-03-14T02:48:14;1.20;;;0.80;;
28447;SDS011;15675;52.870;-1.416;2023-03-14T02:50:43;1.23;;;0.85;;
28447;SDS011;15675;52.870;-1.416;2023-03-14T02:53:12;1.23;;;0.88;;
28447;SDS011;15675;52.870;-1.416;2023-03-14T02:55:44;2.00;;;0.98;;
28447;SDS011;15675;52.870;-1.416;2023-03-14T02:58:10;2.03;;;0.95;;
28447;SDS011;15675;52.870;-1.416;2023-03-14T03:00:36;1.17;;;0.80;;
28447;SDS011;15675;52.870;-1.416;2023-03-14T03:03:01;3.25;;;1.45;;
28447;SDS011;15675;52.870;-1.416;2023-03-14T03:05:27;2.13;;;1.30;;
28447;SDS011;15675;52.870;-1.416;2023-03-14T03:07:52;5.25;;;1.58;;
28447;SDS011;15675;52.870;-1.416;2023-03-14T03:10:18;3.20;;;1.40;;
28447;SDS011;15675;52.870;-1.416;2023-03-14T03:12:43;3.05;;;1.70;;
28447;SDS011;15675;52.870;-1.416;2023-03-14T03:15:09;5.90;;;1.60;;
28447;SDS011;15675;52.870;-1.416;2023-03-14T03:17:35;3.05;;;1.80;;
28447;SDS011;15675;52.870;-1.416;2023-03-14T03:20:00;3.17;;;1.27;;
28447;SDS011;15675;52.870;-1.416;2023-03-14T03:22:26;2.75;;;1.50;;
28447;SDS011;15675;52.870;-1.416;2023-03-14T03:24:52;2.60;;;1.48;;
28447;SDS011;15675;52.870;-1.416;2023-03-14T03:27:17;5.72;;;1.73;;
28447;SDS011;15675;52.870;-1.416;2023-03-14T03:29:42;10.07;;;2.03;;
28447;SDS011;15675;52.870;-1.416;2023-03-14T03:32:08;4.45;;;1.77;;
28447;SDS011;15675;52.870;-1.416;2023-03-14T03:34:33;2.97;;;1.33;;
28447;SDS011;15675;52.870;-1.416;2023-03-14T03:37:00;2.55;;;1.65;;
28447;SDS011;15675;52.870;-1.416;2023-03-14T03:39:25;6.50;;;1.80;;
28447;SDS011;15675;52.870;-1.416;2023-03-14T03:41:51;3.03;;;1.70;;
28447;SDS011;15675;52.870;-1.416;2023-03-14T03:44:16;4.72;;;1.63;;
28447;SDS011;15675;52.870;-1.416;2023-03-14T03:46:42;4.38;;;1.77;;
28447;SDS011;15675;52.870;-1.416;2023-03-14T03:49:08;6.35;;;2.40;;
28447;SDS011;15675;52.870;-1.416;2023-03-14T03:51:33;6.80;;;1.70;;
28447;SDS011;15675;52.870;-1.416;2023-03-14T03:53:59;4.75;;;1.60;;
28447;SDS011;15675;52.870;-1.416;2023-03-14T03:56:24;4.57;;;1.55;;
28447;SDS011;15675;52.870;-1.416;2023-03-14T03:58:50;3.65;;;1.92;;
28447;SDS011;15675;52.870;-1.416;2023-03-14T04:01:15;4.35;;;2.15;;
28447;SDS011;15675;52.870;-1.416;2023-03-14T04:03:41;4.47;;;1.90;;
28447;SDS011;15675;52.870;-1.416;2023-03-14T04:06:08;4.93;;;2.10;;
28447;SDS011;15675;52.870;-1.416;2023-03-14T04:08:36;2.78;;;1.75;;
28447;SDS011;15675;52.870;-1.416;2023-03-14T04:11:02;7.13;;;1.80;;
28447;SDS011;15675;52.870;-1.416;2023-03-14T04:13:28;4.47;;;1.67;;
28447;SDS011;15675;52.870;-1.416;2023-03-14T04:15:54;3.95;;;1.60;;
28447;SDS011;15675;52.870;-1.416;2023-03-14T04:18:21;4.22;;;1.40;;
28447;SDS011;15675;52.870;-1.416;2023-03-14T04:20:54;2.38;;;1.25;;
28447;SDS011;15675;52.870;-1.416;2023-03-14T04:25:52;2.63;;;1.20;;
28447;SDS011;15675;52.870;-1.416;2023-03-14T04:28:18;6.38;;;1.45;;
28447;SDS011;15675;52.870;-1.416;2023-03-14T04:30:44;3.03;;;1.38;;
28447;SDS011;15675;52.870;-1.416;2023-03-14T04:33:10;5.78;;;1.42;;
28447;SDS011;15675;52.870;-1.416;2023-03-14T04:35:37;5.45;;;2.15;;
28447;SDS011;15675;52.870;-1.416;2023-03-14T04:38:03;5.97;;;1.50;;
28447;SDS011;15675;52.870;-1.416;2023-03-14T04:40:28;7.28;;;1.35;;
28447;SDS011;15675;52.870;-1.416;2023-03-14T04:42:54;5.13;;;1.80;;
28447;SDS011;15675;52.870;-1.416;2023-03-14T04:45:20;5.35;;;1.50;;
28447;SDS011;15675;52.870;-1.416;2023-03-14T04:47:45;4.50;;;1.52;;
28447;SDS011;15675;52.870;-1.416;2023-03-14T04:50:11;4.90;;;1.42;;
28447;SDS011;15675;52.870;-1.416;2023-03-14T04:52:36;7.55;;;1.63;;
28447;SDS011;15675;52.870;-1.416;2023-03-14T04:55:02;4.30;;;1.08;;
28447;SDS011;15675;52.870;-1.416;2023-03-14T04:57:28;5.00;;;1.00;;
28447;SDS011;15675;52.870;-1.416;2023-03-14T04:59:54;4.18;;;1.30;;
28447;SDS011;15675;52.870;-1.416;2023-03-14T05:02:19;4.18;;;1.50;;
28447;SDS011;15675;52.870;-1.416;2023-03-14T05:04:45;3.15;;;1.48;;
28447;SDS011;15675;52.870;-1.416;2023-03-14T05:07:10;3.75;;;1.55;;
28447;SDS011;15675;52.870;-1.416;2023-03-14T05:09:36;4.35;;;1.52;;
28447;SDS011;15675;52.870;-1.416;2023-03-14T05:12:01;3.20;;;1.52;;
28447;SDS011;15675;52.870;-1.416;2023-03-14T05:14:27;5.60;;;2.03;;
28447;SDS011;15675;52.870;-1.416;2023-03-14T05:16:53;3.95;;;1.60;;
28447;SDS011;15675;52.870;-1.416;2023-03-14T05:19:18;2.50;;;1.27;;
28447;SDS011;15675;52.870;-1.416;2023-03-14T05:21:44;4.03;;;1.58;;
28447;SDS011;15675;52.870;-1.416;2023-03-14T05:24:09;3.67;;;1.40;;
28447;SDS011;15675;52.870;-1.416;2023-03-14T05:26:35;3.95;;;1.25;;
28447;SDS011;15675;52.870;-1.416;2023-03-14T05:29:00;4.13;;;1.10;;
28447;SDS011;15675;52.870;-1.416;2023-03-14T05:31:26;3.55;;;1.20;;
28447;SDS011;15675;52.870;-1.416;2023-03-14T05:33:51;3.95;;;1.48;;
28447;SDS011;15675;52.870;-1.416;2023-03-14T05:36:17;4.07;;;1.63;;
28447;SDS011;15675;52.870;-1.416;2023-03-14T05:38:43;6.40;;;1.60;;
28447;SDS011;15675;52.870;-1.416;2023-03-14T05:41:08;5.38;;;1.15;;
28447;SDS011;15675;52.870;-1.416;2023-03-14T05:43:34;6.85;;;1.63;;
28447;SDS011;15675;52.870;-1.416;2023-03-14T05:46:00;5.38;;;1.58;;
28447;SDS011;15675;52.870;-1.416;2023-03-14T05:48:25;8.63;;;2.50;;
28447;SDS011;15675;52.870;-1.416;2023-03-14T05:50:54;8.85;;;1.92;;
28447;SDS011;15675;52.870;-1.416;2023-03-14T05:53:24;8.80;;;1.90;;
28447;SDS011;15675;52.870;-1.416;2023-03-14T05:55:51;21.67;;;3.15;;
28447;SDS011;15675;52.870;-1.416;2023-03-14T05:58:20;14.80;;;2.22;;
28447;SDS011;15675;52.870;-1.416;2023-03-14T06:00:46;14.95;;;2.08;;
28447;SDS011;15675;52.870;-1.416;2023-03-14T06:03:12;17.23;;;3.03;;
28447;SDS011;15675;52.870;-1.416;2023-03-14T06:05:39;15.88;;;3.05;;
28447;SDS011;15675;52.870;-1.416;2023-03-14T06:08:04;14.40;;;2.42;;
28447;SDS011;15675;52.870;-1.416;2023-03-14T06:10:30;16.80;;;2.83;;
28447;SDS011;15675;52.870;-1.416;2023-03-14T06:12:55;22.20;;;3.40;;
28447;SDS011;15675;52.870;-1.416;2023-03-14T06:15:21;20.83;;;3.35;;
28447;SDS011;15675;52.870;-1.416;2023-03-14T06:17:47;17.30;;;2.83;;
28447;SDS011;15675;52.870;-1.416;2023-03-14T06:20:12;17.38;;;3.05;;
28447;SDS011;15675;52.870;-1.416;2023-03-14T06:22:38;19.15;;;3.75;;
28447;SDS011;15675;52.870;-1.416;2023-03-14T06:25:06;12.25;;;2.38;;
28447;SDS011;15675;52.870;-1.416;2023-03-14T06:27:32;16.05;;;3.17;;
28447;SDS011;15675;52.870;-1.416;2023-03-14T06:29:58;18.77;;;3.13;;
28447;SDS011;15675;52.870;-1.416;2023-03-14T06:32:24;10.13;;;2.40;;
28447;SDS011;15675;52.870;-1.416;2023-03-14T06:34:50;8.77;;;2.22;;
28447;SDS011;15675;52.870;-1.416;2023-03-14T06:37:15;8.90;;;2.17;;
28447;SDS011;15675;52.870;-1.416;2023-03-14T06:39:41;10.25;;;1.90;;
28447;SDS011;15675;52.870;-1.416;2023-03-14T06:42:08;13.48;;;2.40;;
28447;SDS011;15675;52.870;-1.416;2023-03-14T06:44:34;16.20;;;2.47;;
28447;SDS011;15675;52.870;-1.416;2023-03-14T06:47:00;9.30;;;2.50;;
28447;SDS011;15675;52.870;-1.416;2023-03-14T06:49:26;15.45;;;2.80;;
28447;SDS011;15675;52.870;-1.416;2023-03-14T06:51:51;10.13;;;2.63;;
28447;SDS011;15675;52.870;-1.416;2023-03-14T06:54:17;17.02;;;2.55;;
28447;SDS011;15675;52.870;-1.416;2023-03-14T06:56:42;18.05;;;2.55;;
28447;SDS011;15675;52.870;-1.416;2023-03-14T06:59:08;10.82;;;2.20;;
28447;SDS011;15675;52.870;-1.416;2023-03-14T07:01:34;14.05;;;2.70;;
28447;SDS011;15675;52.870;-1.416;2023-03-14T07:04:00;12.48;;;3.70;;
28447;SDS011;15675;52.870;-1.416;2023-03-14T07:06:26;15.40;;;2.72;;
28447;SDS011;15675;52.870;-1.416;2023-03-14T07:08:54;14.40;;;2.45;;
28447;SDS011;15675;52.870;-1.416;2023-03-14T07:11:20;8.48;;;1.80;;
28447;SDS011;15675;52.870;-1.416;2023-03-14T07:13:45;12.38;;;2.10;;
28447;SDS011;15675;52.870;-1.416;2023-03-14T07:16:11;12.82;;;2.35;;
28447;SDS011;15675;52.870;-1.416;2023-03-14T07:18:37;13.88;;;2.67;;
28447;SDS011;15675;52.870;-1.416;2023-03-14T07:21:03;22.88;;;3.03;;
28447;SDS011;15675;52.870;-1.416;2023-03-14T07:23:30;17.55;;;3.20;;
28447;SDS011;15675;52.870;-1.416;2023-03-14T07:25:55;17.08;;;3.60;;
28447;SDS011;15675;52.870;-1.416;2023-03-14T07:28:21;14.88;;;3.10;;
28447;SDS011;15675;52.870;-1.416;2023-03-14T07:30:48;18.85;;;3.33;;
28447;SDS011;15675;52.870;-1.416;2023-03-14T07:33:13;12.07;;;2.30;;
28447;SDS011;15675;52.870;-1.416;2023-03-14T07:35:40;13.48;;;2.60;;
28447;SDS011;15675;52.870;-1.416;2023-03-14T07:38:05;12.18;;;2.92;;
28447;SDS011;15675;52.870;-1.416;2023-03-14T07:40:31;14.13;;;2.40;;
28447;SDS011;15675;52.870;-1.416;2023-03-14T07:42:56;10.35;;;2.20;;
28447;SDS011;15675;52.870;-1.416;2023-03-14T07:45:22;18.90;;;3.33;;
28447;SDS011;15675;52.870;-1.416;2023-03-14T07:47:48;8.68;;;2.20;;
28447;SDS011;15675;52.870;-1.416;2023-03-14T07:50:13;15.13;;;2.75;;
28447;SDS011;15675;52.870;-1.416;2023-03-14T07:52:39;17.27;;;3.28;;
28447;SDS011;15675;52.870;-1.416;2023-03-14T07:55:05;12.57;;;3.20;;
28447;SDS011;15675;52.870;-1.416;2023-03-14T07:57:31;16.90;;;3.72;;
28447;SDS011;15675;52.870;-1.416;2023-03-14T07:59:56;17.90;;;3.35;;
28447;SDS011;15675;52.870;-1.416;2023-03-14T08:02:22;8.32;;;3.15;;
28447;SDS011;15675;52.870;-1.416;2023-03-14T08:04:49;12.48;;;2.72;;
28447;SDS011;15675;52.870;-1.416;2023-03-14T08:07:15;26.95;;;3.33;;
28447;SDS011;15675;52.870;-1.416;2023-03-14T08:09:41;22.33;;;3.00;;
28447;SDS011;15675;52.870;-1.416;2023-03-14T08:12:06;22.20;;;3.65;;
28447;SDS011;15675;52.870;-1.416;2023-03-14T08:14:32;15.82;;;2.55;;
28447;SDS011;15675;52.870;-1.416;2023-03-14T08:16:58;14.43;;;2.20;;
28447;SDS011;15675;52.870;-1.416;2023-03-14T08:19:24;9.73;;;3.33;;
28447;SDS011;15675;52.870;-1.416;2023-03-14T08:21:49;15.10;;;2.75;;
28447;SDS011;15675;52.870;-1.416;2023-03-14T08:24:15;14.95;;;3.20;;
28447;SDS011;15675;52.870;-1.416;2023-03-14T08:26:41;13.45;;;2.38;;
28447;SDS011;15675;52.870;-1.416;2023-03-14T08:29:06;11.82;;;2.58;;
28447;SDS011;15675;52.870;-1.416;2023-03-14T08:31:34;15.23;;;2.78;;
28447;SDS011;15675;52.870;-1.416;2023-03-14T08:34:00;18.20;;;2.78;;
28447;SDS011;15675;52.870;-1.416;2023-03-14T08:36:26;10.90;;;2.50;;
28447;SDS011;15675;52.870;-1.416;2023-03-14T08:38:52;10.23;;;2.80;;
28447;SDS011;15675;52.870;-1.416;2023-03-14T08:41:18;12.68;;;3.03;;
28447;SDS011;15675;52.870;-1.416;2023-03-14T08:43:46;17.65;;;3.55;;
28447;SDS011;15675;52.870;-1.416;2023-03-14T08:46:12;9.57;;;2.72;;
28447;SDS011;15675;52.870;-1.416;2023-03-14T08:48:37;16.33;;;2.80;;
28447;SDS011;15675;52.870;-1.416;2023-03-14T08:51:07;9.43;;;2.45;;
28447;SDS011;15675;52.870;-1.416;2023-03-14T08:53:36;9.98;;;1.85;;
28447;SDS011;15675;52.870;-1.416;2023-03-14T08:56:02;17.17;;;3.10;;
28447;SDS011;15675;52.870;-1.416;2023-03-14T08:58:29;16.75;;;4.00;;
28447;SDS011;15675;52.870;-1.416;2023-03-14T09:00:54;15.95;;;2.72;;
28447;SDS011;15675;52.870;-1.416;2023-03-14T09:03:20;16.45;;;2.92;;
28447;SDS011;15675;52.870;-1.416;2023-03-14T09:05:49;13.90;;;2.72;;
28447;SDS011;15675;52.870;-1.416;2023-03-14T09:08:17;16.35;;;2.90;;
28447;SDS011;15675;52.870;-1.416;2023-03-14T09:10:43;15.23;;;2.55;;
28447;SDS011;15675;52.870;-1.416;2023-03-14T09:13:08;10.13;;;2.22;;
28447;SDS011;15675;52.870;-1.416;2023-03-14T09:15:34;14.00;;;2.10;;
28447;SDS011;15675;52.870;-1.416;2023-03-14T09:17:59;25.70;;;2.83;;
28447;SDS011;15675;52.870;-1.416;2023-03-14T09:20:25;15.95;;;2.97;;
28447;SDS011;15675;52.870;-1.416;2023-03-14T09:22:51;13.85;;;2.15;;
28447;SDS011;15675;52.870;-1.416;2023-03-14T09:25:16;15.27;;;2.00;;
28447;SDS011;15675;52.870;-1.416;2023-03-14T09:27:42;16.38;;;3.13;;
28447;SDS011;15675;52.870;-1.416;2023-03-14T09:30:08;13.18;;;2.25;;
28447;SDS011;15675;52.870;-1.416;2023-03-14T09:32:34;10.10;;;2.08;;
28447;SDS011;15675;52.870;-1.416;2023-03-14T09:34:59;18.92;;;2.53;;
28447;SDS011;15675;52.870;-1.416;2023-03-14T09:37:25;16.05;;;2.42;;
28447;SDS011;15675;52.870;-1.416;2023-03-14T09:39:50;15.43;;;2.50;;
28447;SDS011;15675;52.870;-1.416;2023-03-14T09:42:17;14.05;;;3.00;;
28447;SDS011;15675;52.870;-1.416;2023-03-14T09:44:51;21.67;;;2.40;;
28447;SDS011;15675;52.870;-1.416;2023-03-14T09:47:18;18.02;;;3.13;;
28447;SDS011;15675;52.870;-1.416;2023-03-14T09:49:45;15.43;;;2.70;;
28447;SDS011;15675;52.870;-1.416;2023-03-14T09:52:13;14.02;;;3.20;;
28447;SDS011;15675;52.870;-1.416;2023-03-14T09:54:47;9.07;;;2.22;;
28447;SDS011;15675;52.870;-1.416;2023-03-14T09:57:14;12.15;;;2.35;;
28447;SDS011;15675;52.870;-1.416;2023-03-14T09:59:43;12.50;;;2.15;;
28447;SDS011;15675;52.870;-1.416;2023-03-14T10:02:20;13.70;;;2.80;;
28447;SDS011;15675;52.870;-1.416;2023-03-14T10:04:49;9.25;;;2.20;;
28447;SDS011;15675;52.870;-1.416;2023-03-14T10:07:30;13.80;;;2.42;;
28447;SDS011;15675;52.870;-1.416;2023-03-14T10:09:57;12.93;;;2.63;;
28447;SDS011;15675;52.870;-1.416;2023-03-14T10:12:30;13.90;;;3.05;;
28447;SDS011;15675;52.870;-1.416;2023-03-14T10:15:24;15.07;;;3.13;;
28447;SDS011;15675;52.870;-1.416;2023-03-14T10:17:54;13.50;;;3.17;;
28447;SDS011;15675;52.870;-1.416;2023-03-14T10:20:36;16.65;;;2.67;;
28447;SDS011;15675;52.870;-1.416;2023-03-14T10:23:05;13.88;;;2.60;;
28447;SDS011;15675;52.870;-1.416;2023-03-14T10:25:32;11.48;;;3.13;;
28447;SDS011;15675;52.870;-1.416;2023-03-14T10:28:00;5.93;;;2.00;;
28447;SDS011;15675;52.870;-1.416;2023-03-14T10:30:38;12.57;;;2.40;;
28447;SDS011;15675;52.870;-1.416;2023-03-14T10:33:18;12.77;;;2.42;;
28447;SDS011;15675;52.870;-1.416;2023-03-14T10:35:45;15.55;;;2.67;;
28447;SDS011;15675;52.870;-1.416;2023-03-14T10:38:17;13.48;;;3.13;;
28447;SDS011;15675;52.870;-1.416;2023-03-14T10:40:47;6.55;;;2.63;;
28447;SDS011;15675;52.870;-1.416;2023-03-14T10:43:18;15.32;;;2.00;;
28447;SDS011;15675;52.870;-1.416;2023-03-14T10:45:51;19.38;;;2.80;;
28447;SDS011;15675;52.870;-1.416;2023-03-14T10:48:33;13.80;;;1.92;;
28447;SDS011;15675;52.870;-1.416;2023-03-14T10:56:14;10.82;;;2.10;;
28447;SDS011;15675;52.870;-1.416;2023-03-14T10:58:45;12.98;;;2.38;;
28447;SDS011;15675;52.870;-1.416;2023-03-14T11:14:54;8.73;;;1.55;;
28447;SDS011;15675;52.870;-1.416;2023-03-14T11:20:32;7.38;;;1.48;;
28447;SDS011;15675;52.870;-1.416;2023-03-14T11:23:13;8.55;;;1.92;;
28447;SDS011;15675;52.870;-1.416;2023-03-14T11:31:19;10.68;;;1.85;;
28447;SDS011;15675;52.870;-1.416;2023-03-14T11:36:44;11.82;;;1.80;;
28447;SDS011;15675;52.870;-1.416;2023-03-14T11:39:18;6.72;;;1.42;;
28447;SDS011;15675;52.870;-1.416;2023-03-14T11:41:54;9.85;;;1.98;;
28447;SDS011;15675;52.870;-1.416;2023-03-14T11:44:28;16.13;;;2.58;;
28447;SDS011;15675;52.870;-1.416;2023-03-14T11:49:47;10.40;;;2.22;;
28447;SDS011;15675;52.870;-1.416;2023-03-14T11:54:54;15.65;;;2.80;;
28447;SDS011;15675;52.870;-1.416;2023-03-14T11:57:25;8.60;;;2.28;;
28447;SDS011;15675;52.870;-1.416;2023-03-14T12:02:43;13.93;;;3.05;;
28447;SDS011;15675;52.870;-1.416;2023-03-14T12:10:46;8.20;;;1.73;;
28447;SDS011;15675;52.870;-1.416;2023-03-14T12:13:13;8.35;;;1.98;;
28447;SDS011;15675;52.870;-1.416;2023-03-14T12:15:40;12.23;;;1.95;;
28447;SDS011;15675;52.870;-1.416;2023-03-14T12:18:20;14.07;;;1.80;;
28447;SDS011;15675;52.870;-1.416;2023-03-14T12:20:53;10.30;;;2.17;;
28447;SDS011;15675;52.870;-1.416;2023-03-14T12:23:20;8.50;;;1.63;;
28447;SDS011;15675;52.870;-1.416;2023-03-14T12:25:47;7.65;;;1.70;;
28447;SDS011;15675;52.870;-1.416;2023-03-14T12:28:22;7.25;;;1.67;;
28447;SDS011;15675;52.870;-1.416;2023-03-14T12:33:28;4.55;;;1.60;;
28447;SDS011;15675;52.870;-1.416;2023-03-14T12:35:58;4.88;;;1.17;;
28447;SDS011;15675;52.870;-1.416;2023-03-14T12:40:57;8.05;;;1.63;;
28447;SDS011;15675;52.870;-1.416;2023-03-14T12:43:24;6.95;;;1.52;;
28447;SDS011;15675;52.870;-1.416;2023-03-14T12:46:07;9.63;;;1.77;;
28447;SDS011;15675;52.870;-1.416;2023-03-14T12:48:42;4.00;;;1.70;;
28447;SDS011;15675;52.870;-1.416;2023-03-14T12:51:36;12.45;;;1.95;;
28447;SDS011;15675;52.870;-1.416;2023-03-14T12:56:57;7.05;;;1.50;;
28447;SDS011;15675;52.870;-1.416;2023-03-14T12:59:37;2.90;;;0.95;;
28447;SDS011;15675;52.870;-1.416;2023-03-14T13:12:38;19.58;;;2.35;;
28447;SDS011;15675;52.870;-1.416;2023-03-14T13:15:53;8.32;;;1.95;;
28447;SDS011;15675;52.870;-1.416;2023-03-14T13:17:59;7.18;;;1.92;;
28447;SDS011;15675;52.870;-1.416;2023-03-14T13:20:31;11.18;;;1.48;;
28447;SDS011;15675;52.870;-1.416;2023-03-14T13:23:00;10.73;;;1.90;;
28447;SDS011;15675;52.870;-1.416;2023-03-14T13:25:35;8.13;;;2.33;;
28447;SDS011;15675;52.870;-1.416;2023-03-14T13:28:01;10.02;;;1.95;;
28447;SDS011;15675;52.870;-1.416;2023-03-14T13:30:29;5.50;;;1.80;;
28447;SDS011;15675;52.870;-1.416;2023-03-14T13:33:04;7.65;;;1.73;;
28447;SDS011;15675;52.870;-1.416;2023-03-14T13:35:38;10.38;;;1.60;;
28447;SDS011;15675;52.870;-1.416;2023-03-14T13:38:13;7.35;;;1.40;;
28447;SDS011;15675;52.870;-1.416;2023-03-14T13:40:42;7.28;;;1.30;;
28447;SDS011;15675;52.870;-1.416;2023-03-14T13:43:14;9.05;;;1.40;;
28447;SDS011;15675;52.870;-1.416;2023-03-14T13:45:56;9.10;;;1.77;;
28447;SDS011;15675;52.870;-1.416;2023-03-14T13:48:22;7.72;;;1.30;;
28447;SDS011;15675;52.870;-1.416;2023-03-14T13:50:53;11.70;;;1.50;;
28447;SDS011;15675;52.870;-1.416;2023-03-14T13:53:21;9.98;;;1.38;;
28447;SDS011;15675;52.870;-1.416;2023-03-14T13:55:47;11.57;;;2.03;;
28447;SDS011;15675;52.870;-1.416;2023-03-14T13:58:27;6.70;;;1.73;;
28447;SDS011;15675;52.870;-1.416;2023-03-14T14:01:16;5.63;;;1.40;;
28447;SDS011;15675;52.870;-1.416;2023-03-14T14:03:50;6.93;;;1.33;;
28447;SDS011;15675;52.870;-1.416;2023-03-14T14:08:46;3.13;;;1.02;;
28447;SDS011;15675;52.870;-1.416;2023-03-14T14:11:15;4.57;;;1.33;;
28447;SDS011;15675;52.870;-1.416;2023-03-14T14:13:48;2.85;;;0.95;;
28447;SDS011;15675;52.870;-1.416;2023-03-14T14:16:15;11.85;;;2.25;;
28447;SDS011;15675;52.870;-1.416;2023-03-14T14:18:45;6.70;;;1.50;;
28447;SDS011;15675;52.870;-1.416;2023-03-14T14:21:11;6.93;;;1.70;;
28447;SDS011;15675;52.870;-1.416;2023-03-14T14:23:38;11.85;;;1.98;;
28447;SDS011;15675;52.870;-1.416;2023-03-14T14:26:05;3.70;;;1.35;;
28447;SDS011;15675;52.870;-1.416;2023-03-14T14:28:35;7.75;;;1.30;;
28447;SDS011;15675;52.870;-1.416;2023-03-14T14:31:20;7.95;;;1.30;;
28447;SDS011;15675;52.870;-1.416;2023-03-14T14:36:19;6.32;;;1.55;;
28447;SDS011;15675;52.870;-1.416;2023-03-14T14:38:51;7.53;;;1.55;;
28447;SDS011;15675;52.870;-1.416;2023-03-14T14:41:19;5.05;;;0.95;;
28447;SDS011;15675;52.870;-1.416;2023-03-14T14:43:45;5.93;;;1.23;;
28447;SDS011;15675;52.870;-1.416;2023-03-14T14:46:13;9.98;;;1.90;;
28447;SDS011;15675;52.870;-1.416;2023-03-14T14:48:43;11.43;;;2.65;;
28447;SDS011;15675;52.870;-1.416;2023-03-14T14:51:08;7.35;;;1.52;;
28447;SDS011;15675;52.870;-1.416;2023-03-14T14:53:42;5.05;;;0.88;;
28447;SDS011;15675;52.870;-1.416;2023-03-14T14:56:16;5.80;;;1.13;;
28447;SDS011;15675;52.870;-1.416;2023-03-14T14:58:50;6.93;;;1.77;;
28447;SDS011;15675;52.870;-1.416;2023-03-14T15:01:24;9.63;;;1.27;;
28447;SDS011;15675;52.870;-1.416;2023-03-14T15:03:55;6.10;;;1.20;;
28447;SDS011;15675;52.870;-1.416;2023-03-14T15:06:21;5.38;;;1.20;;
28447;SDS011;15675;52.870;-1.416;2023-03-14T15:08:52;5.15;;;1.33;;
28447;SDS011;15675;52.870;-1.416;2023-03-14T15:11:18;6.60;;;1.30;;
28447;SDS011;15675;52.870;-1.416;2023-03-14T15:13:47;3.55;;;1.25;;
28447;SDS011;15675;52.870;-1.416;2023-03-14T15:16:15;3.55;;;1.23;;
28447;SDS011;15675;52.870;-1.416;2023-03-14T15:18:42;6.75;;;1.27;;
28447;SDS011;15675;52.870;-1.416;2023-03-14T15:21:09;10.50;;;1.83;;
28447;SDS011;15675;52.870;-1.416;2023-03-14T15:23:35;2.50;;;0.68;;
28447;SDS011;15675;52.870;-1.416;2023-03-14T15:26:01;1.55;;;0.70;;
28447;SDS011;15675;52.870;-1.416;2023-03-14T15:28:28;5.22;;;1.00;;
28447;SDS011;15675;52.870;-1.416;2023-03-14T15:30:55;5.57;;;0.88;;
28447;SDS011;15675;52.870;-1.416;2023-03-14T15:33:22;1.92;;;0.70;;
28447;SDS011;15675;52.870;-1.416;2023-03-14T15:35:49;1.38;;;0.68;;
28447;SDS011;15675;52.870;-1.416;2023-03-14T15:38:16;5.88;;;1.15;;
28447;SDS011;15675;52.870;-1.416;2023-03-14T15:40:46;3.58;;;1.00;;
28447;SDS011;15675;52.870;-1.416;2023-03-14T15:43:12;3.67;;;1.08;;
28447;SDS011;15675;52.870;-1.416;2023-03-14T15:45:37;3.25;;;0.80;;
28447;SDS011;15675;52.870;-1.416;2023-03-14T15:48:03;6.35;;;1.20;;
28447;SDS011;15675;52.870;-1.416;2023-03-14T15:50:29;7.88;;;1.23;;
28447;SDS011;15675;52.870;-1.416;2023-03-14T15:52:55;3.78;;;1.10;;
28447;SDS011;15675;52.870;-1.416;2023-03-14T15:55:21;5.03;;;1.17;;